createdAt,value
2018-03-25T00:02:05.370Z,99.90
2018-03-25T00:04:34.040Z,99.90
2018-03-25T00:07:03.486Z,99.90
2018-03-25T00:09:32.448Z,99.90
2018-03-25T00:12:02.350Z,99.90
2018-03-25T00:14:30.465Z,99.90
2018-03-25T00:16:59.387Z,99.90
2018-03-25T00:19:27.707Z,99.90
2018-03-25T00:21:56.431Z,99.90
2018-03-25T00:24:25.944Z,99.90
2018-03-25T00:26:54.085Z,99.90
2018-03-25T00:29:22.002Z,99.90
2018-03-25T00:31:50.733Z,99.90
2018-03-25T00:34:19.068Z,99.90
2018-03-25T00:36:47.518Z,99.90
2018-03-25T00:39:16.180Z,99.90
2018-03-25T00:41:44.117Z,99.90
2018-03-25T00:44:13.948Z,99.90
2018-03-25T00:46:42.659Z,99.90
2018-03-25T00:49:12.382Z,99.90
2018-03-25T00:51:41.282Z,99.90
2018-03-25T00:54:10.793Z,99.90
2018-03-25T00:56:39.966Z,99.90
2018-03-25T00:59:08.261Z,99.90
2018-03-25T01:01:37.600Z,99.90
2018-03-25T01:04:06.931Z,99.90
2018-03-25T01:06:36.939Z,99.90
2018-03-25T01:09:05.344Z,99.90
2018-03-25T01:11:34.144Z,99.90
2018-03-25T01:14:03.747Z,99.90
2018-03-25T01:16:32.118Z,99.90
2018-03-25T01:19:00.154Z,99.90
2018-03-25T01:21:28.096Z,99.90
2018-03-25T01:23:57.489Z,99.90
2018-03-25T01:26:27.907Z,99.90
2018-03-25T01:28:56.514Z,99.90
2018-03-25T01:31:25.109Z,99.90
2018-03-25T01:33:53.594Z,99.90
2018-03-25T01:36:22.577Z,99.90
2018-03-25T01:38:52.056Z,99.90
2018-03-25T01:41:20.609Z,99.90
2018-03-25T01:43:48.585Z,99.90
2018-03-25T01:46:17.145Z,99.90
2018-03-25T01:48:45.774Z,99.90
2018-03-25T01:51:14.667Z,99.90
2018-03-25T01:53:42.784Z,99.90
2018-03-25T01:56:11.383Z,99.90
2018-03-25T01:58:39.890Z,99.90
2018-03-25T02:01:08.599Z,99.90
2018-03-25T02:03:36.536Z,99.90
2018-03-25T02:06:04.572Z,99.90
2018-03-25T02:08:32.485Z,99.90
2018-03-25T02:11:00.430Z,99.90
2018-03-25T02:13:29.290Z,99.90
2018-03-25T02:15:58.008Z,99.90
2018-03-25T02:18:25.946Z,99.90
2018-03-25T02:20:54.680Z,99.90
2018-03-25T02:23:22.580Z,99.90
2018-03-25T02:25:50.536Z,99.90
2018-03-25T02:28:18.426Z,99.90
2018-03-25T02:30:47.174Z,99.90
2018-03-25T02:33:15.109Z,99.90
2018-03-25T02:35:43.082Z,99.90
2018-03-25T02:38:10.988Z,99.90
2018-03-25T02:40:38.880Z,99.90
2018-03-25T02:43:06.841Z,99.90
2018-03-25T02:45:34.771Z,99.90
2018-03-25T02:48:02.721Z,99.90
2018-03-25T02:50:31.373Z,99.90
2018-03-25T02:52:59.341Z,99.90
2018-03-25T02:55:27.234Z,99.90
2018-03-25T02:57:55.945Z,99.90
2018-03-25T03:00:23.832Z,99.90
2018-03-25T03:02:51.786Z,99.90
2018-03-25T03:07:59.400Z,99.90
2018-03-25T03:10:27.293Z,99.90
2018-03-25T03:12:55.233Z,99.90
2018-03-25T03:15:23.142Z,99.90
2018-03-25T03:17:51.098Z,99.90
2018-03-25T03:20:18.968Z,99.90
2018-03-25T03:22:46.917Z,99.90
2018-03-25T03:25:14.800Z,99.90
2018-03-25T03:27:42.739Z,99.90
2018-03-25T03:30:11.390Z,99.90
2018-03-25T03:32:39.384Z,99.90
2018-03-25T03:35:08.848Z,99.90
2018-03-25T03:37:36.834Z,99.90
2018-03-25T03:40:04.780Z,99.90
2018-03-25T03:42:32.736Z,99.90
2018-03-25T03:45:00.650Z,99.90
2018-03-25T03:47:28.626Z,99.90
2018-03-25T03:49:56.543Z,99.90
2018-03-25T03:52:26.505Z,99.90
2018-03-25T03:54:54.431Z,99.90
2018-03-25T03:57:22.423Z,99.90
2018-03-25T03:59:50.334Z,99.90
2018-03-25T04:02:18.300Z,99.90
2018-03-25T04:04:46.218Z,99.90
2018-03-25T04:07:14.186Z,99.90
2018-03-25T04:09:42.082Z,99.90
2018-03-25T04:12:10.051Z,99.90
2018-03-25T04:14:37.953Z,99.90
2018-03-25T04:17:06.696Z,99.90
2018-03-25T04:19:34.624Z,99.90
2018-03-25T04:22:03.364Z,99.90
2018-03-25T04:24:31.264Z,99.90
2018-03-25T04:26:59.997Z,99.90
2018-03-25T04:29:27.910Z,99.90
2018-03-25T04:31:55.894Z,99.90
2018-03-25T04:34:24.562Z,99.90
2018-03-25T04:36:52.524Z,99.90
2018-03-25T04:39:20.429Z,99.90
2018-03-25T04:41:49.154Z,99.90
2018-03-25T04:44:17.072Z,99.90
2018-03-25T04:46:45.051Z,99.90
2018-03-25T04:49:13.741Z,99.90
2018-03-25T04:51:42.855Z,99.90
2018-03-25T04:54:10.798Z,99.90
2018-03-25T04:56:38.761Z,99.90
2018-03-25T04:59:06.660Z,99.90
2018-03-25T05:01:35.375Z,99.90
2018-03-25T05:04:03.283Z,99.90
2018-03-25T05:06:31.254Z,99.90
2018-03-25T05:08:59.163Z,99.90
2018-03-25T05:11:27.143Z,99.90
2018-03-25T05:13:55.060Z,99.90
2018-03-25T05:16:23.026Z,99.90
2018-03-25T05:18:50.945Z,99.90
2018-03-25T05:21:18.955Z,99.90
2018-03-25T05:23:46.934Z,99.90
2018-03-25T05:26:14.849Z,99.90
2018-03-25T05:28:42.824Z,99.90
2018-03-25T05:31:10.735Z,99.90
2018-03-25T05:33:38.678Z,99.90
2018-03-25T05:36:06.596Z,99.90
2018-03-25T05:38:34.592Z,99.90
2018-03-25T05:41:03.302Z,99.90
2018-03-25T05:43:31.268Z,99.90
2018-03-25T05:45:59.184Z,99.90
2018-03-25T05:48:27.166Z,99.90
2018-03-25T05:50:55.086Z,99.90
2018-03-25T05:53:23.059Z,99.90
2018-03-25T05:55:51.737Z,99.90
2018-03-25T05:58:19.707Z,99.90
2018-03-25T06:00:47.615Z,99.90
2018-03-25T06:03:15.578Z,99.90
2018-03-25T06:05:43.496Z,99.90
2018-03-25T06:08:11.466Z,99.90
2018-03-25T06:10:39.400Z,99.90
2018-03-25T06:13:09.775Z,99.90
2018-03-25T06:15:37.738Z,99.90
2018-03-25T06:18:06.487Z,99.90
2018-03-25T06:20:37.550Z,99.90
2018-03-25T06:23:05.830Z,99.90
2018-03-25T06:25:34.508Z,99.90
2018-03-25T06:28:02.492Z,99.90
2018-03-25T06:30:31.184Z,99.90
2018-03-25T06:32:59.920Z,99.90
2018-03-25T06:35:29.255Z,99.90
2018-03-25T06:37:57.212Z,99.90
2018-03-25T06:40:25.179Z,99.90
2018-03-25T06:42:53.156Z,99.90
2018-03-25T06:45:21.065Z,99.90
2018-03-25T06:47:49.162Z,99.90
2018-03-25T06:50:17.075Z,99.90
2018-03-25T06:52:45.048Z,99.90
2018-03-25T06:55:12.968Z,99.90
2018-03-25T06:57:42.176Z,99.90
2018-03-25T07:00:10.125Z,99.90
2018-03-25T07:02:38.096Z,99.90
2018-03-25T07:05:06.065Z,99.90
2018-03-25T07:07:37.286Z,99.90
2018-03-25T07:10:05.474Z,99.90
2018-03-25T07:12:34.669Z,99.90
2018-03-25T07:15:03.398Z,99.90
2018-03-25T07:17:31.380Z,99.90
2018-03-25T07:19:59.288Z,99.90
2018-03-25T07:22:28.071Z,98.20
2018-03-25T07:24:55.988Z,98.20
2018-03-25T07:27:23.929Z,96.50
2018-03-25T07:29:51.895Z,99.20
2018-03-25T07:32:19.864Z,97.10
2018-03-25T07:34:47.788Z,99.10
2018-03-25T07:37:15.745Z,92.90
2018-03-25T07:39:43.642Z,95.30
2018-03-25T07:42:12.336Z,98.10
2018-03-25T07:44:40.252Z,91.80
2018-03-25T07:47:08.229Z,72.70
2018-03-25T07:49:36.187Z,58.60
2018-03-25T07:52:04.224Z,58.90
2018-03-25T07:54:32.132Z,55.30
2018-03-25T07:57:00.099Z,54.20
2018-03-25T07:59:28.011Z,52.70
2018-03-25T08:01:55.990Z,50.00
2018-03-25T08:04:23.896Z,48.40
2018-03-25T08:06:52.585Z,48.50
2018-03-25T08:09:21.341Z,47.70
2018-03-25T08:11:49.261Z,47.70
2018-03-25T08:14:17.222Z,46.50
2018-03-25T08:16:45.131Z,46.80
2018-03-25T08:19:13.090Z,45.10
2018-03-25T08:21:41.036Z,44.10
2018-03-25T08:24:09.327Z,45.40
2018-03-25T08:26:37.382Z,45.70
2018-03-25T08:29:06.226Z,44.60
2018-03-25T08:31:34.129Z,44.50
2018-03-25T08:34:02.101Z,42.40
2018-03-25T08:36:30.791Z,42.00
2018-03-25T08:38:59.615Z,41.30
2018-03-25T08:41:27.531Z,41.10
2018-03-25T08:43:55.498Z,40.40
2018-03-25T08:46:26.115Z,40.30
2018-03-25T08:48:54.088Z,40.20
2018-03-25T08:51:21.988Z,40.70
2018-03-25T08:53:50.725Z,40.80
2018-03-25T08:56:18.639Z,40.80
2018-03-25T08:58:47.376Z,41.70
2018-03-25T09:01:15.302Z,41.70
2018-03-25T09:03:44.068Z,39.20
2018-03-25T09:06:12.001Z,39.10
2018-03-25T09:08:39.968Z,39.40
2018-03-25T09:11:07.888Z,38.00
2018-03-25T09:13:36.365Z,37.80
2018-03-25T09:16:04.275Z,37.20
2018-03-25T09:18:32.240Z,36.60
2018-03-25T09:21:00.152Z,35.60
2018-03-25T09:23:28.109Z,34.40
2018-03-25T09:25:56.010Z,34.00
2018-03-25T09:28:23.976Z,35.10
2018-03-25T09:30:51.871Z,35.30
2018-03-25T09:33:20.605Z,34.10
2018-03-25T09:35:48.517Z,34.10
2018-03-25T09:38:16.484Z,34.40
2018-03-25T09:40:44.411Z,35.00
2018-03-25T09:43:12.399Z,34.80
2018-03-25T09:45:40.296Z,34.80
2018-03-25T09:48:09.027Z,33.30
2018-03-25T09:50:37.699Z,33.20
2018-03-25T09:53:05.665Z,33.20
2018-03-25T09:55:34.326Z,34.00
2018-03-25T09:58:02.300Z,33.90
2018-03-25T10:00:37.995Z,33.90
2018-03-25T10:03:11.644Z,33.90
2018-03-25T10:05:39.553Z,33.50
2018-03-25T10:08:07.519Z,33.20
2018-03-25T10:10:35.436Z,34.40
2018-03-25T10:13:03.403Z,34.80
2018-03-25T10:15:31.387Z,34.60
2018-03-25T10:17:59.358Z,33.00
2018-03-25T10:20:27.281Z,33.30
2018-03-25T10:22:55.292Z,31.10
2018-03-25T10:25:23.203Z,31.40
2018-03-25T10:27:51.936Z,31.40
2018-03-25T10:30:19.849Z,31.30
2018-03-25T10:32:48.578Z,30.30
2018-03-25T10:35:16.481Z,30.30
2018-03-25T10:37:44.475Z,30.40
2018-03-25T10:40:13.161Z,29.80
2018-03-25T10:42:41.944Z,29.70
2018-03-25T10:45:09.859Z,29.60
2018-03-25T10:47:37.824Z,29.90
2018-03-25T10:50:05.749Z,29.90
2018-03-25T10:52:33.763Z,31.30
2018-03-25T10:55:01.859Z,30.90
2018-03-25T10:57:29.808Z,31.40
2018-03-25T10:59:57.809Z,33.20
2018-03-25T11:02:25.763Z,32.70
2018-03-25T11:04:53.868Z,32.70
2018-03-25T11:07:21.767Z,34.60
2018-03-25T11:09:50.493Z,33.40
2018-03-25T11:12:18.387Z,33.30
2018-03-25T11:14:46.350Z,32.70
2018-03-25T11:17:16.795Z,32.90
2018-03-25T11:19:44.847Z,33.60
2018-03-25T11:22:12.827Z,32.50
2018-03-25T11:24:41.016Z,32.70
2018-03-25T11:27:08.949Z,30.70
2018-03-25T11:29:38.400Z,31.00
2018-03-25T11:32:06.306Z,30.40
2018-03-25T11:34:34.271Z,31.70
2018-03-25T11:37:02.706Z,31.50
2018-03-25T11:39:30.704Z,31.60
2018-03-25T11:41:59.428Z,32.90
2018-03-25T11:44:27.399Z,32.90
2018-03-25T11:46:55.307Z,31.30
2018-03-25T11:49:24.749Z,31.70
2018-03-25T11:51:52.991Z,32.50
2018-03-25T11:54:21.000Z,31.80
2018-03-25T11:56:49.684Z,32.60
2018-03-25T11:59:18.420Z,33.00
2018-03-25T12:01:46.429Z,33.00
2018-03-25T12:04:15.164Z,30.70
2018-03-25T12:06:43.063Z,30.70
2018-03-25T12:09:11.044Z,31.60
2018-03-25T12:11:38.945Z,31.30
2018-03-25T12:14:07.670Z,32.70
2018-03-25T12:16:35.597Z,32.70
2018-03-25T12:19:04.379Z,32.40
2018-03-25T12:21:32.299Z,32.40
2018-03-25T12:24:00.556Z,31.00
2018-03-25T12:26:29.030Z,31.60
2018-03-25T12:28:57.536Z,33.10
2018-03-25T12:31:26.094Z,31.60
2018-03-25T12:33:54.385Z,32.90
2018-03-25T12:36:23.139Z,34.00
2018-03-25T12:38:52.587Z,33.00
2018-03-25T12:41:21.332Z,32.90
2018-03-25T12:43:50.660Z,30.90
2018-03-25T12:46:18.809Z,30.90
2018-03-25T12:48:48.003Z,30.80
2018-03-25T12:51:16.758Z,30.70
2018-03-25T12:53:44.740Z,32.40
2018-03-25T12:56:12.647Z,31.60
2018-03-25T12:58:41.378Z,32.00
2018-03-25T13:01:10.051Z,32.40
2018-03-25T13:03:37.995Z,32.30
2018-03-25T13:06:06.692Z,32.70
2018-03-25T13:08:34.683Z,32.60
2018-03-25T13:11:02.591Z,31.90
2018-03-25T13:13:30.555Z,32.20
2018-03-25T13:15:58.480Z,32.30
2018-03-25T13:18:26.443Z,33.30
2018-03-25T13:20:54.380Z,34.40
2018-03-25T13:23:22.342Z,34.20
2018-03-25T13:25:50.283Z,34.00
2018-03-25T13:28:18.264Z,34.40
2018-03-25T13:30:46.203Z,31.70
2018-03-25T13:33:14.155Z,31.80
2018-03-25T13:35:42.128Z,33.50
2018-03-25T13:38:10.807Z,36.10
2018-03-25T13:40:39.579Z,35.00
2018-03-25T13:43:08.272Z,36.40
2018-03-25T13:45:37.004Z,35.60
2018-03-25T13:48:04.988Z,35.40
2018-03-25T13:50:32.972Z,35.30
2018-03-25T13:53:01.941Z,35.30
2018-03-25T13:55:30.016Z,34.70
2018-03-25T13:57:57.922Z,36.00
2018-03-25T14:00:25.899Z,38.00
2018-03-25T14:02:53.830Z,37.50
2018-03-25T14:05:21.808Z,35.70
2018-03-25T14:07:49.795Z,38.20
2018-03-25T14:10:17.859Z,38.80
2018-03-25T14:12:45.800Z,39.00
2018-03-25T14:15:13.828Z,39.60
2018-03-25T14:17:41.749Z,40.70
2018-03-25T14:20:09.780Z,39.90
2018-03-25T14:22:38.487Z,39.30
2018-03-25T14:25:09.185Z,39.40
2018-03-25T14:27:37.090Z,41.80
2018-03-25T14:30:05.210Z,39.10
2018-03-25T14:32:33.126Z,40.10
2018-03-25T14:35:01.094Z,40.50
2018-03-25T14:37:29.778Z,40.00
2018-03-25T14:39:58.509Z,40.20
2018-03-25T14:42:26.424Z,40.10
2018-03-25T14:44:55.181Z,41.80
2018-03-25T14:47:23.159Z,41.70
2018-03-25T14:49:51.181Z,40.80
2018-03-25T14:52:19.092Z,41.30
2018-03-25T14:54:47.081Z,41.80
2018-03-25T14:57:15.003Z,42.10
2018-03-25T14:59:43.140Z,42.00
2018-03-25T15:02:11.108Z,42.60
2018-03-25T15:04:39.075Z,42.90
2018-03-25T15:07:09.296Z,41.90
2018-03-25T15:09:38.087Z,43.20
2018-03-25T15:12:06.006Z,43.20
2018-03-25T15:14:34.000Z,45.20
2018-03-25T15:17:01.914Z,44.60
2018-03-25T15:19:30.661Z,43.20
2018-03-25T15:21:58.577Z,43.10
2018-03-25T15:24:27.318Z,45.20
2018-03-25T15:26:55.918Z,45.20
2018-03-25T15:29:23.929Z,44.00
2018-03-25T15:31:55.174Z,44.30
2018-03-25T15:34:23.188Z,46.70
2018-03-25T15:36:51.102Z,46.20
2018-03-25T15:39:19.835Z,47.90
2018-03-25T15:41:47.757Z,47.90
2018-03-25T15:44:16.509Z,50.20
2018-03-25T15:46:44.455Z,50.20
2018-03-25T15:49:12.411Z,51.40
2018-03-25T15:51:40.329Z,51.60
2018-03-25T15:54:08.332Z,47.80
2018-03-25T15:56:37.107Z,48.10
2018-03-25T15:59:05.127Z,48.20
2018-03-25T16:01:33.036Z,49.80
2018-03-25T16:04:01.200Z,50.20
2018-03-25T16:06:29.112Z,48.80
2018-03-25T16:08:57.868Z,53.70
2018-03-25T16:11:25.836Z,53.70
2018-03-25T16:13:53.752Z,52.40
2018-03-25T16:16:21.734Z,51.20
2018-03-25T16:18:53.360Z,55.90
2018-03-25T16:21:24.070Z,64.10
2018-03-25T16:23:52.608Z,63.40
2018-03-25T16:26:20.743Z,70.80
2018-03-25T16:28:54.189Z,68.80
2018-03-25T16:31:26.800Z,68.50
2018-03-25T16:34:00.256Z,73.20
2018-03-25T16:36:36.786Z,75.00
2018-03-25T16:39:13.102Z,77.00
2018-03-25T16:41:46.304Z,77.90
2018-03-25T16:44:17.207Z,79.70
2018-03-25T16:46:47.841Z,82.90
2018-03-25T16:49:19.996Z,82.70
2018-03-25T16:51:51.078Z,90.20
2018-03-25T16:54:23.284Z,90.40
2018-03-25T16:56:54.736Z,90.40
2018-03-25T16:59:26.025Z,90.40
2018-03-25T17:01:58.440Z,91.40
2018-03-25T17:04:30.280Z,94.70
2018-03-25T17:07:03.709Z,92.80
2018-03-25T17:09:37.532Z,91.00
2018-03-25T17:12:11.417Z,95.60
2018-03-25T17:14:45.110Z,95.60
2018-03-25T17:17:17.980Z,91.80
2018-03-25T17:19:49.235Z,94.90
2018-03-25T17:22:21.429Z,92.90
2018-03-25T17:24:56.201Z,98.80
2018-03-25T17:27:26.747Z,98.80
2018-03-25T17:29:56.591Z,99.90
2018-03-25T17:32:27.802Z,99.30
2018-03-25T17:35:00.245Z,99.90
2018-03-25T17:37:30.452Z,99.90
2018-03-25T17:40:01.721Z,99.70
2018-03-25T17:45:08.013Z,95.80
2018-03-25T17:47:40.141Z,99.50
2018-03-25T17:50:11.588Z,99.40
2018-03-25T17:52:43.614Z,99.90
2018-03-25T17:55:16.289Z,99.90
2018-03-25T17:57:47.402Z,99.90
2018-03-25T18:00:15.475Z,99.90
2018-03-25T18:02:44.190Z,99.90
2018-03-25T18:05:15.962Z,99.90
2018-03-25T18:07:47.899Z,99.90
2018-03-25T18:10:21.440Z,99.90
2018-03-25T18:12:54.473Z,99.90
2018-03-25T18:15:29.370Z,99.90
2018-03-25T18:18:03.181Z,99.90
2018-03-25T18:20:36.320Z,99.90
2018-03-25T18:23:10.374Z,99.90
2018-03-25T18:25:39.302Z,99.90
2018-03-25T18:28:09.340Z,99.90
2018-03-25T18:30:42.953Z,99.90
2018-03-25T18:33:17.003Z,99.90
2018-03-25T18:35:49.315Z,99.90
2018-03-25T18:38:23.983Z,99.90
2018-03-25T18:40:55.766Z,99.90
2018-03-25T18:43:27.665Z,99.90
2018-03-25T18:46:00.160Z,99.90
2018-03-25T18:48:31.174Z,99.90
2018-03-25T18:51:02.028Z,99.90
2018-03-25T18:53:33.552Z,99.90
2018-03-25T18:56:07.937Z,99.90
2018-03-25T18:58:40.616Z,99.90
2018-03-25T19:01:13.185Z,99.90
2018-03-25T19:03:44.716Z,99.90
2018-03-25T19:06:17.132Z,99.90
2018-03-25T19:08:48.167Z,99.90
2018-03-25T19:11:17.871Z,99.90
2018-03-25T19:13:48.399Z,99.90
2018-03-25T19:16:20.652Z,99.90
2018-03-25T19:18:49.396Z,99.90
2018-03-25T19:21:21.044Z,99.90
2018-03-25T19:23:49.348Z,99.90
2018-03-25T19:26:21.944Z,99.90
2018-03-25T19:28:52.801Z,99.90
2018-03-25T19:31:22.237Z,99.90
2018-03-25T19:33:50.792Z,99.90
2018-03-25T19:36:24.228Z,99.90
2018-03-25T19:38:55.332Z,99.90
2018-03-25T19:41:24.076Z,99.90
2018-03-25T19:43:52.203Z,99.90
2018-03-25T19:46:22.540Z,99.90
2018-03-25T19:48:52.489Z,99.90
2018-03-25T19:51:22.222Z,99.90
2018-03-25T19:53:53.012Z,99.90
2018-03-25T19:56:26.818Z,99.90
2018-03-25T19:58:58.220Z,99.90
2018-03-25T20:01:30.446Z,99.90
2018-03-25T20:04:01.439Z,99.90
2018-03-25T20:06:32.556Z,99.90
2018-03-25T20:09:05.268Z,99.90
2018-03-25T20:11:36.306Z,99.90
2018-03-25T20:14:07.493Z,99.90
2018-03-25T20:16:37.276Z,99.90
2018-03-25T20:19:05.943Z,99.90
2018-03-25T20:21:35.866Z,99.90
2018-03-25T20:24:09.991Z,99.90
2018-03-25T20:26:45.575Z,99.90
2018-03-25T20:29:14.428Z,99.90
2018-03-25T20:31:42.914Z,99.90
2018-03-25T20:34:13.018Z,99.90
2018-03-25T20:36:41.284Z,99.90
2018-03-25T20:39:11.907Z,99.90
2018-03-25T20:41:42.260Z,99.90
2018-03-25T20:44:12.537Z,99.90
2018-03-25T20:46:43.925Z,99.90
2018-03-25T20:49:15.191Z,99.90
2018-03-25T20:51:43.357Z,99.90
2018-03-25T20:54:14.522Z,99.90
2018-03-25T20:56:43.498Z,99.90
2018-03-25T20:59:12.996Z,99.90
2018-03-25T21:01:40.979Z,99.90
2018-03-25T21:04:09.118Z,99.90
2018-03-25T21:06:37.353Z,99.90
2018-03-25T21:09:09.864Z,99.90
2018-03-25T21:11:39.500Z,99.90
2018-03-25T21:14:07.405Z,99.90
2018-03-25T21:16:36.565Z,99.90
2018-03-25T21:19:04.527Z,99.90
2018-03-25T21:21:32.508Z,99.90
2018-03-25T21:24:00.439Z,99.90
2018-03-25T21:26:28.419Z,99.90
2018-03-25T21:28:56.356Z,99.90
2018-03-25T21:31:25.083Z,99.90
2018-03-25T21:33:53.016Z,99.90
2018-03-25T21:36:21.807Z,99.90
2018-03-25T21:38:49.780Z,99.90
2018-03-25T21:41:17.807Z,99.90
2018-03-25T21:43:47.204Z,99.90
2018-03-25T21:46:16.310Z,99.90
2018-03-25T21:48:45.270Z,99.90
2018-03-25T21:51:13.288Z,99.90
2018-03-25T21:53:41.218Z,99.90
2018-03-25T21:56:09.212Z,99.90
2018-03-25T21:58:40.626Z,99.90
2018-03-25T22:01:11.643Z,99.90
2018-03-25T22:03:40.416Z,99.90
2018-03-25T22:06:08.826Z,99.90
2018-03-25T22:08:37.274Z,99.90
2018-03-25T22:11:06.155Z,99.90
2018-03-25T22:13:34.758Z,99.90
2018-03-25T22:16:03.125Z,99.90
2018-03-25T22:18:33.781Z,99.90
2018-03-25T22:21:02.977Z,99.90
2018-03-25T22:23:32.040Z,99.90
2018-03-25T22:26:01.766Z,99.90
2018-03-25T22:28:30.267Z,99.90
2018-03-25T22:30:58.889Z,99.90
2018-03-25T22:33:27.868Z,99.90
2018-03-25T22:35:56.793Z,99.90
2018-03-25T22:38:25.222Z,99.90
2018-03-25T22:40:54.148Z,99.90
2018-03-25T22:43:23.980Z,99.90
2018-03-25T22:45:54.660Z,99.90
2018-03-25T22:48:24.485Z,99.90
2018-03-25T22:50:54.941Z,99.90
2018-03-25T22:53:24.059Z,99.90
2018-03-25T22:55:53.286Z,99.90
2018-03-25T22:58:21.770Z,99.90
2018-03-25T23:00:51.392Z,99.90
2018-03-25T23:03:20.935Z,99.90
2018-03-25T23:05:49.300Z,99.90
2018-03-25T23:08:18.471Z,99.90
2018-03-25T23:10:47.220Z,99.90
2018-03-25T23:13:16.084Z,99.90
2018-03-25T23:15:44.924Z,99.90
2018-03-25T23:18:13.341Z,99.90
2018-03-25T23:20:41.305Z,99.90
2018-03-25T23:23:09.241Z,99.90
2018-03-25T23:25:40.561Z,99.90
2018-03-25T23:28:11.899Z,99.90
2018-03-25T23:30:40.554Z,99.90
2018-03-25T23:33:08.942Z,99.90
2018-03-25T23:35:37.983Z,99.90
2018-03-25T23:38:07.213Z,99.90
2018-03-25T23:40:35.699Z,99.90
2018-03-25T23:43:04.464Z,99.90
2018-03-25T23:45:33.616Z,99.90
2018-03-25T23:48:02.476Z,99.90
2018-03-25T23:50:31.392Z,99.90
2018-03-25T23:53:00.429Z,99.90
2018-03-25T23:55:28.800Z,99.90
2018-03-25T23:57:57.057Z,99.90
